sensor_id;sensor_type;location;lat;lon;timestamp;P1;durP1;ratioP1;P2;durP2;ratioP2
68921;SDS011;55959;51.244;5.724;2023-01-15T00:01:21;0.60;;;0.30;;
68921;SDS011;55959;51.244;5.724;2023-01-15T00:03:56;1.00;;;0.40;;
68921;SDS011;55959;51.244;5.724;2023-01-15T00:06:24;2.27;;;0.70;;
68921;SDS011;55959;51.244;5.724;2023-01-15T00:08:51;1.73;;;0.50;;
68921;SDS011;55959;51.244;5.724;2023-01-15T00:11:17;1.07;;;0.50;;
68921;SDS011;55959;51.244;5.724;2023-01-15T00:13:44;1.20;;;0.57;;
68921;SDS011;55959;51.244;5.724;2023-01-15T00:16:14;0.90;;;0.50;;
68921;SDS011;55959;51.244;5.724;2023-01-15T00:18:48;1.23;;;0.40;;
68921;SDS011;55959;51.244;5.724;2023-01-15T00:21:19;1.53;;;0.50;;
68921;SDS011;55959;51.244;5.724;2023-01-15T00:23:46;2.70;;;0.60;;
68921;SDS011;55959;51.244;5.724;2023-01-15T00:26:31;0.53;;;0.40;;
68921;SDS011;55959;51.244;5.724;2023-01-15T00:29:16;3.10;;;1.03;;
68921;SDS011;55959;51.244;5.724;2023-01-15T00:31:43;1.87;;;0.50;;
68921;SDS011;55959;51.244;5.724;2023-01-15T00:34:23;2.10;;;0.60;;
68921;SDS011;55959;51.244;5.724;2023-01-15T00:36:50;1.43;;;0.43;;
68921;SDS011;55959;51.244;5.724;2023-01-15T00:39:17;1.93;;;0.57;;
68921;SDS011;55959;51.244;5.724;2023-01-15T00:41:43;2.07;;;0.50;;
68921;SDS011;55959;51.244;5.724;2023-01-15T00:44:08;1.20;;;0.40;;
68921;SDS011;55959;51.244;5.724;2023-01-15T00:46:34;1.67;;;0.80;;
68921;SDS011;55959;51.244;5.724;2023-01-15T00:49:01;0.97;;;0.47;;
68921;SDS011;55959;51.244;5.724;2023-01-15T00:51:27;2.57;;;0.70;;
68921;SDS011;55959;51.244;5.724;2023-01-15T00:53:53;1.77;;;0.60;;
68921;SDS011;55959;51.244;5.724;2023-01-15T00:56:19;1.43;;;0.43;;
68921;SDS011;55959;51.244;5.724;2023-01-15T00:58:44;0.87;;;0.40;;
68921;SDS011;55959;51.244;5.724;2023-01-15T01:01:12;1.47;;;0.47;;
68921;SDS011;55959;51.244;5.724;2023-01-15T01:03:38;1.77;;;0.57;;
68921;SDS011;55959;51.244;5.724;2023-01-15T01:06:04;1.57;;;0.50;;
68921;SDS011;55959;51.244;5.724;2023-01-15T01:08:30;1.83;;;0.70;;
68921;SDS011;55959;51.244;5.724;2023-01-15T01:11:02;1.50;;;0.50;;
68921;SDS011;55959;51.244;5.724;2023-01-15T01:13:31;1.17;;;0.57;;
68921;SDS011;55959;51.244;5.724;2023-01-15T01:15:58;1.73;;;0.60;;
68921;SDS011;55959;51.244;5.724;2023-01-15T01:18:24;0.93;;;0.47;;
68921;SDS011;55959;51.244;5.724;2023-01-15T01:20:50;1.10;;;0.40;;
68921;SDS011;55959;51.244;5.724;2023-01-15T01:23:16;3.40;;;0.70;;
68921;SDS011;55959;51.244;5.724;2023-01-15T01:25:42;2.23;;;0.60;;
68921;SDS011;55959;51.244;5.724;2023-01-15T01:28:08;2.60;;;0.60;;
68921;SDS011;55959;51.244;5.724;2023-01-15T01:30:36;1.47;;;0.60;;
68921;SDS011;55959;51.244;5.724;2023-01-15T01:33:02;3.10;;;0.43;;
68921;SDS011;55959;51.244;5.724;2023-01-15T01:35:29;2.00;;;0.80;;
68921;SDS011;55959;51.244;5.724;2023-01-15T01:37:54;2.00;;;0.67;;
68921;SDS011;55959;51.244;5.724;2023-01-15T01:40:20;1.30;;;0.60;;
68921;SDS011;55959;51.244;5.724;2023-01-15T01:42:46;3.20;;;0.70;;
68921;SDS011;55959;51.244;5.724;2023-01-15T01:45:22;2.00;;;0.60;;
68921;SDS011;55959;51.244;5.724;2023-01-15T01:47:58;4.07;;;1.00;;
68921;SDS011;55959;51.244;5.724;2023-01-15T01:50:28;3.27;;;0.73;;
68921;SDS011;55959;51.244;5.724;2023-01-15T01:53:02;2.00;;;0.80;;
68921;SDS011;55959;51.244;5.724;2023-01-15T01:55:33;3.63;;;0.70;;
68921;SDS011;55959;51.244;5.724;2023-01-15T01:58:01;1.80;;;0.50;;
68921;SDS011;55959;51.244;5.724;2023-01-15T02:00:30;0.73;;;0.60;;
68921;SDS011;55959;51.244;5.724;2023-01-15T02:02:57;0.47;;;0.40;;
68921;SDS011;55959;51.244;5.724;2023-01-15T02:05:26;2.27;;;0.73;;
68921;SDS011;55959;51.244;5.724;2023-01-15T02:07:56;2.03;;;0.53;;
68921;SDS011;55959;51.244;5.724;2023-01-15T02:10:22;1.10;;;0.60;;
68921;SDS011;55959;51.244;5.724;2023-01-15T02:12:52;5.07;;;0.70;;
68921;SDS011;55959;51.244;5.724;2023-01-15T02:15:27;1.63;;;0.60;;
68921;SDS011;55959;51.244;5.724;2023-01-15T02:29:08;3.53;;;0.87;;
68921;SDS011;55959;51.244;5.724;2023-01-15T02:31:40;3.67;;;1.00;;
68921;SDS011;55959;51.244;5.724;2023-01-15T02:34:15;2.83;;;0.60;;
68921;SDS011;55959;51.244;5.724;2023-01-15T02:36:52;3.57;;;1.17;;
68921;SDS011;55959;51.244;5.724;2023-01-15T02:39:27;2.87;;;0.80;;
68921;SDS011;55959;51.244;5.724;2023-01-15T02:41:56;1.60;;;0.60;;
68921;SDS011;55959;51.244;5.724;2023-01-15T02:44:27;3.17;;;1.10;;
68921;SDS011;55959;51.244;5.724;2023-01-15T02:46:55;3.17;;;0.97;;
68921;SDS011;55959;51.244;5.724;2023-01-15T02:49:23;3.63;;;0.90;;
68921;SDS011;55959;51.244;5.724;2023-01-15T02:51:57;4.40;;;0.90;;
68921;SDS011;55959;51.244;5.724;2023-01-15T02:54:46;3.07;;;0.73;;
68921;SDS011;55959;51.244;5.724;2023-01-15T02:57:27;3.17;;;0.97;;
68921;SDS011;55959;51.244;5.724;2023-01-15T02:59:57;2.67;;;1.07;;
68921;SDS011;55959;51.244;5.724;2023-01-15T03:02:27;2.73;;;1.07;;
68921;SDS011;55959;51.244;5.724;2023-01-15T03:07:50;3.07;;;1.40;;
68921;SDS011;55959;51.244;5.724;2023-01-15T03:10:26;5.33;;;1.20;;
68921;SDS011;55959;51.244;5.724;2023-01-15T03:13:28;3.87;;;0.90;;
68921;SDS011;55959;51.244;5.724;2023-01-15T03:16:17;2.33;;;0.90;;
68921;SDS011;55959;51.244;5.724;2023-01-15T03:21:57;3.83;;;1.03;;
68921;SDS011;55959;51.244;5.724;2023-01-15T03:24:35;4.40;;;0.90;;
68921;SDS011;55959;51.244;5.724;2023-01-15T03:27:10;4.10;;;1.37;;
68921;SDS011;55959;51.244;5.724;2023-01-15T03:29:38;3.50;;;1.07;;
68921;SDS011;55959;51.244;5.724;2023-01-15T03:32:08;9.17;;;1.27;;
68921;SDS011;55959;51.244;5.724;2023-01-15T03:34:39;3.87;;;0.97;;
68921;SDS011;55959;51.244;5.724;2023-01-15T03:37:09;5.43;;;1.10;;
68921;SDS011;55959;51.244;5.724;2023-01-15T03:39:35;3.00;;;1.00;;
68921;SDS011;55959;51.244;5.724;2023-01-15T03:42:04;4.70;;;1.30;;
68921;SDS011;55959;51.244;5.724;2023-01-15T03:55:52;5.50;;;1.50;;
68921;SDS011;55959;51.244;5.724;2023-01-15T03:58:29;2.73;;;1.10;;
68921;SDS011;55959;51.244;5.724;2023-01-15T04:01:13;4.13;;;1.40;;
68921;SDS011;55959;51.244;5.724;2023-01-15T04:03:43;4.50;;;1.40;;
68921;SDS011;55959;51.244;5.724;2023-01-15T04:06:13;4.33;;;1.03;;
68921;SDS011;55959;51.244;5.724;2023-01-15T04:08:39;4.60;;;1.13;;
68921;SDS011;55959;51.244;5.724;2023-01-15T04:11:08;4.27;;;1.23;;
68921;SDS011;55959;51.244;5.724;2023-01-15T04:13:33;5.03;;;1.23;;
68921;SDS011;55959;51.244;5.724;2023-01-15T04:15:59;6.87;;;1.67;;
68921;SDS011;55959;51.244;5.724;2023-01-15T04:18:25;5.70;;;1.50;;
68921;SDS011;55959;51.244;5.724;2023-01-15T04:20:51;4.13;;;1.30;;
68921;SDS011;55959;51.244;5.724;2023-01-15T04:23:18;5.17;;;1.10;;
68921;SDS011;55959;51.244;5.724;2023-01-15T04:25:44;4.40;;;1.10;;
68921;SDS011;55959;51.244;5.724;2023-01-15T04:28:10;2.83;;;1.10;;
68921;SDS011;55959;51.244;5.724;2023-01-15T04:30:37;10.10;;;1.50;;
68921;SDS011;55959;51.244;5.724;2023-01-15T04:33:02;3.73;;;1.33;;
68921;SDS011;55959;51.244;5.724;2023-01-15T04:35:28;4.20;;;1.00;;
68921;SDS011;55959;51.244;5.724;2023-01-15T04:37:58;4.87;;;1.30;;
68921;SDS011;55959;51.244;5.724;2023-01-15T04:40:24;3.77;;;1.30;;
68921;SDS011;55959;51.244;5.724;2023-01-15T04:43:10;3.67;;;1.20;;
68921;SDS011;55959;51.244;5.724;2023-01-15T04:45:56;6.27;;;1.30;;
68921;SDS011;55959;51.244;5.724;2023-01-15T04:48:22;4.60;;;1.77;;
68921;SDS011;55959;51.244;5.724;2023-01-15T04:50:48;3.73;;;1.10;;
68921;SDS011;55959;51.244;5.724;2023-01-15T04:53:14;3.57;;;1.20;;
68921;SDS011;55959;51.244;5.724;2023-01-15T04:55:40;5.27;;;1.40;;
68921;SDS011;55959;51.244;5.724;2023-01-15T04:58:06;3.53;;;0.90;;
68921;SDS011;55959;51.244;5.724;2023-01-15T05:00:31;5.47;;;1.27;;
68921;SDS011;55959;51.244;5.724;2023-01-15T05:02:57;4.10;;;1.00;;
68921;SDS011;55959;51.244;5.724;2023-01-15T05:05:23;4.80;;;1.30;;
68921;SDS011;55959;51.244;5.724;2023-01-15T05:07:49;4.23;;;1.07;;
68921;SDS011;55959;51.244;5.724;2023-01-15T05:10:14;4.80;;;1.27;;
68921;SDS011;55959;51.244;5.724;2023-01-15T05:12:40;7.00;;;1.80;;
68921;SDS011;55959;51.244;5.724;2023-01-15T05:15:06;3.70;;;1.27;;
68921;SDS011;55959;51.244;5.724;2023-01-15T05:17:32;5.00;;;1.10;;
68921;SDS011;55959;51.244;5.724;2023-01-15T05:19:58;4.40;;;1.40;;
68921;SDS011;55959;51.244;5.724;2023-01-15T05:22:24;5.60;;;1.40;;
68921;SDS011;55959;51.244;5.724;2023-01-15T05:24:50;5.07;;;1.00;;
68921;SDS011;55959;51.244;5.724;2023-01-15T05:27:16;6.00;;;1.03;;
68921;SDS011;55959;51.244;5.724;2023-01-15T05:29:41;5.87;;;1.40;;
68921;SDS011;55959;51.244;5.724;2023-01-15T05:32:07;5.93;;;1.60;;
68921;SDS011;55959;51.244;5.724;2023-01-15T05:34:33;4.50;;;1.10;;
68921;SDS011;55959;51.244;5.724;2023-01-15T05:36:59;4.03;;;1.13;;
68921;SDS011;55959;51.244;5.724;2023-01-15T05:39:24;6.90;;;1.23;;
68921;SDS011;55959;51.244;5.724;2023-01-15T05:41:50;7.87;;;1.80;;
68921;SDS011;55959;51.244;5.724;2023-01-15T05:46:48;4.90;;;1.30;;
68921;SDS011;55959;51.244;5.724;2023-01-15T05:49:18;5.43;;;1.30;;
68921;SDS011;55959;51.244;5.724;2023-01-15T05:51:46;5.23;;;1.27;;
68921;SDS011;55959;51.244;5.724;2023-01-15T05:54:14;3.47;;;1.10;;
68921;SDS011;55959;51.244;5.724;2023-01-15T05:56:48;4.27;;;1.50;;
68921;SDS011;55959;51.244;5.724;2023-01-15T05:59:15;2.70;;;1.17;;
68921;SDS011;55959;51.244;5.724;2023-01-15T06:01:43;5.27;;;1.20;;
68921;SDS011;55959;51.244;5.724;2023-01-15T06:04:10;3.70;;;1.07;;
68921;SDS011;55959;51.244;5.724;2023-01-15T06:06:38;4.23;;;1.27;;
68921;SDS011;55959;51.244;5.724;2023-01-15T06:09:05;4.17;;;1.43;;
68921;SDS011;55959;51.244;5.724;2023-01-15T06:11:30;4.20;;;1.10;;
68921;SDS011;55959;51.244;5.724;2023-01-15T06:13:57;3.43;;;0.90;;
68921;SDS011;55959;51.244;5.724;2023-01-15T06:16:23;6.27;;;1.20;;
68921;SDS011;55959;51.244;5.724;2023-01-15T06:18:49;4.57;;;1.47;;
68921;SDS011;55959;51.244;5.724;2023-01-15T06:21:15;5.93;;;1.00;;
68921;SDS011;55959;51.244;5.724;2023-01-15T06:23:41;5.73;;;1.10;;
68921;SDS011;55959;51.244;5.724;2023-01-15T06:26:16;5.03;;;1.17;;
68921;SDS011;55959;51.244;5.724;2023-01-15T06:28:42;4.57;;;1.13;;
68921;SDS011;55959;51.244;5.724;2023-01-15T06:31:10;4.13;;;1.10;;
68921;SDS011;55959;51.244;5.724;2023-01-15T06:33:38;2.53;;;0.80;;
68921;SDS011;55959;51.244;5.724;2023-01-15T06:36:08;3.27;;;1.07;;
68921;SDS011;55959;51.244;5.724;2023-01-15T06:38:47;4.87;;;0.90;;
68921;SDS011;55959;51.244;5.724;2023-01-15T06:41:14;6.03;;;1.60;;
68921;SDS011;55959;51.244;5.724;2023-01-15T06:44:04;5.80;;;1.20;;
68921;SDS011;55959;51.244;5.724;2023-01-15T06:46:49;3.43;;;0.90;;
68921;SDS011;55959;51.244;5.724;2023-01-15T06:49:35;6.23;;;1.30;;
68921;SDS011;55959;51.244;5.724;2023-01-15T06:52:01;5.90;;;1.37;;
68921;SDS011;55959;51.244;5.724;2023-01-15T06:54:28;3.47;;;1.00;;
68921;SDS011;55959;51.244;5.724;2023-01-15T06:56:55;3.93;;;1.40;;
68921;SDS011;55959;51.244;5.724;2023-01-15T06:59:20;5.17;;;1.40;;
68921;SDS011;55959;51.244;5.724;2023-01-15T07:01:46;5.03;;;1.30;;
68921;SDS011;55959;51.244;5.724;2023-01-15T07:04:12;4.47;;;1.17;;
68921;SDS011;55959;51.244;5.724;2023-01-15T07:06:38;5.40;;;1.33;;
68921;SDS011;55959;51.244;5.724;2023-01-15T07:09:04;6.67;;;1.20;;
68921;SDS011;55959;51.244;5.724;2023-01-15T07:11:30;4.63;;;1.33;;
68921;SDS011;55959;51.244;5.724;2023-01-15T07:13:56;6.40;;;1.40;;
68921;SDS011;55959;51.244;5.724;2023-01-15T07:16:34;3.73;;;1.13;;
68921;SDS011;55959;51.244;5.724;2023-01-15T07:19:00;4.57;;;2.00;;
68921;SDS011;55959;51.244;5.724;2023-01-15T07:21:27;4.03;;;1.00;;
68921;SDS011;55959;51.244;5.724;2023-01-15T07:23:53;7.37;;;1.23;;
68921;SDS011;55959;51.244;5.724;2023-01-15T07:26:19;3.80;;;1.20;;
68921;SDS011;55959;51.244;5.724;2023-01-15T07:28:45;3.77;;;1.07;;
68921;SDS011;55959;51.244;5.724;2023-01-15T07:31:11;2.10;;;1.20;;
68921;SDS011;55959;51.244;5.724;2023-01-15T07:33:36;5.23;;;1.10;;
68921;SDS011;55959;51.244;5.724;2023-01-15T07:36:03;1.73;;;0.67;;
68921;SDS011;55959;51.244;5.724;2023-01-15T07:38:29;3.20;;;1.10;;
68921;SDS011;55959;51.244;5.724;2023-01-15T07:40:56;5.70;;;1.27;;
68921;SDS011;55959;51.244;5.724;2023-01-15T07:43:41;3.50;;;1.03;;
68921;SDS011;55959;51.244;5.724;2023-01-15T07:46:26;1.87;;;0.67;;
68921;SDS011;55959;51.244;5.724;2023-01-15T07:49:10;4.27;;;1.10;;
68921;SDS011;55959;51.244;5.724;2023-01-15T07:51:55;2.87;;;0.60;;
68921;SDS011;55959;51.244;5.724;2023-01-15T07:54:21;3.90;;;0.63;;
68921;SDS011;55959;51.244;5.724;2023-01-15T07:56:46;4.17;;;0.80;;
68921;SDS011;55959;51.244;5.724;2023-01-15T07:59:13;4.57;;;0.70;;
68921;SDS011;55959;51.244;5.724;2023-01-15T08:01:39;2.47;;;1.10;;
68921;SDS011;55959;51.244;5.724;2023-01-15T08:04:04;1.90;;;0.60;;
68921;SDS011;55959;51.244;5.724;2023-01-15T08:06:30;3.40;;;0.53;;
68921;SDS011;55959;51.244;5.724;2023-01-15T08:08:56;2.33;;;0.50;;
68921;SDS011;55959;51.244;5.724;2023-01-15T08:11:21;2.40;;;0.80;;
68921;SDS011;55959;51.244;5.724;2023-01-15T08:14:07;1.20;;;0.50;;
68921;SDS011;55959;51.244;5.724;2023-01-15T08:17:12;3.30;;;0.60;;
68921;SDS011;55959;51.244;5.724;2023-01-15T08:19:38;1.80;;;0.53;;
68921;SDS011;55959;51.244;5.724;2023-01-15T08:22:04;2.17;;;0.70;;
68921;SDS011;55959;51.244;5.724;2023-01-15T08:24:29;2.87;;;0.63;;
68921;SDS011;55959;51.244;5.724;2023-01-15T08:26:55;2.33;;;0.70;;
68921;SDS011;55959;51.244;5.724;2023-01-15T08:29:21;3.53;;;0.87;;
68921;SDS011;55959;51.244;5.724;2023-01-15T08:31:47;1.20;;;0.53;;
68921;SDS011;55959;51.244;5.724;2023-01-15T08:34:13;3.90;;;0.70;;
68921;SDS011;55959;51.244;5.724;2023-01-15T08:36:39;2.60;;;0.93;;
68921;SDS011;55959;51.244;5.724;2023-01-15T08:39:05;2.03;;;0.70;;
68921;SDS011;55959;51.244;5.724;2023-01-15T08:41:31;2.80;;;0.80;;
68921;SDS011;55959;51.244;5.724;2023-01-15T08:43:57;3.23;;;0.80;;
68921;SDS011;55959;51.244;5.724;2023-01-15T08:46:24;2.20;;;0.80;;
68921;SDS011;55959;51.244;5.724;2023-01-15T08:48:49;2.13;;;0.60;;
68921;SDS011;55959;51.244;5.724;2023-01-15T08:51:15;3.17;;;1.00;;
68921;SDS011;55959;51.244;5.724;2023-01-15T08:53:41;4.50;;;0.87;;
68921;SDS011;55959;51.244;5.724;2023-01-15T08:56:16;4.97;;;0.93;;
68921;SDS011;55959;51.244;5.724;2023-01-15T08:58:44;2.30;;;0.73;;
68921;SDS011;55959;51.244;5.724;2023-01-15T09:01:11;4.73;;;0.80;;
68921;SDS011;55959;51.244;5.724;2023-01-15T09:03:40;5.00;;;1.10;;
68921;SDS011;55959;51.244;5.724;2023-01-15T09:06:07;3.00;;;0.87;;
68921;SDS011;55959;51.244;5.724;2023-01-15T09:08:33;3.33;;;0.90;;
68921;SDS011;55959;51.244;5.724;2023-01-15T09:10:59;5.03;;;1.10;;
68921;SDS011;55959;51.244;5.724;2023-01-15T09:13:27;4.80;;;1.50;;
68921;SDS011;55959;51.244;5.724;2023-01-15T09:15:58;3.70;;;0.80;;
68921;SDS011;55959;51.244;5.724;2023-01-15T09:18:25;3.13;;;1.10;;
68921;SDS011;55959;51.244;5.724;2023-01-15T09:20:51;5.17;;;1.10;;
68921;SDS011;55959;51.244;5.724;2023-01-15T09:23:17;4.47;;;1.33;;
68921;SDS011;55959;51.244;5.724;2023-01-15T09:28:18;5.73;;;1.23;;
68921;SDS011;55959;51.244;5.724;2023-01-15T09:30:44;4.27;;;1.30;;
68921;SDS011;55959;51.244;5.724;2023-01-15T09:33:10;6.40;;;1.60;;
68921;SDS011;55959;51.244;5.724;2023-01-15T09:35:36;4.87;;;0.90;;
68921;SDS011;55959;51.244;5.724;2023-01-15T09:38:02;6.40;;;1.37;;
68921;SDS011;55959;51.244;5.724;2023-01-15T09:46:22;4.20;;;1.30;;
68921;SDS011;55959;51.244;5.724;2023-01-15T09:49:40;4.10;;;1.40;;
68921;SDS011;55959;51.244;5.724;2023-01-15T09:52:40;5.13;;;1.57;;
68921;SDS011;55959;51.244;5.724;2023-01-15T09:55:20;9.30;;;1.77;;
68921;SDS011;55959;51.244;5.724;2023-01-15T09:57:56;6.97;;;1.60;;
68921;SDS011;55959;51.244;5.724;2023-01-15T10:00:26;4.77;;;1.40;;
68921;SDS011;55959;51.244;5.724;2023-01-15T10:08:43;2.30;;;1.17;;
68921;SDS011;55959;51.244;5.724;2023-01-15T10:13:42;7.77;;;1.40;;
68921;SDS011;55959;51.244;5.724;2023-01-15T10:16:15;5.80;;;1.57;;
68921;SDS011;55959;51.244;5.724;2023-01-15T10:18:45;6.60;;;1.20;;
68921;SDS011;55959;51.244;5.724;2023-01-15T10:24:16;6.47;;;1.30;;
68921;SDS011;55959;51.244;5.724;2023-01-15T10:38:11;4.37;;;1.17;;
68921;SDS011;55959;51.244;5.724;2023-01-15T10:40:55;3.67;;;1.60;;
68921;SDS011;55959;51.244;5.724;2023-01-15T10:46:18;3.87;;;1.33;;
68921;SDS011;55959;51.244;5.724;2023-01-15T10:48:55;4.83;;;1.00;;
68921;SDS011;55959;51.244;5.724;2023-01-15T10:51:32;8.30;;;1.43;;
68921;SDS011;55959;51.244;5.724;2023-01-15T10:57:11;4.03;;;1.00;;
68921;SDS011;55959;51.244;5.724;2023-01-15T10:59:56;4.20;;;1.33;;
68921;SDS011;55959;51.244;5.724;2023-01-15T11:02:41;3.70;;;0.87;;
68921;SDS011;55959;51.244;5.724;2023-01-15T11:05:20;2.20;;;0.90;;
68921;SDS011;55959;51.244;5.724;2023-01-15T11:07:47;5.00;;;1.07;;
68921;SDS011;55959;51.244;5.724;2023-01-15T11:10:18;3.97;;;1.10;;
68921;SDS011;55959;51.244;5.724;2023-01-15T11:12:59;2.23;;;0.80;;
68921;SDS011;55959;51.244;5.724;2023-01-15T11:16:13;2.73;;;0.70;;
68921;SDS011;55959;51.244;5.724;2023-01-15T11:19:01;2.77;;;1.10;;
68921;SDS011;55959;51.244;5.724;2023-01-15T11:21:47;3.17;;;0.90;;
68921;SDS011;55959;51.244;5.724;2023-01-15T11:24:14;1.70;;;0.70;;
68921;SDS011;55959;51.244;5.724;2023-01-15T11:26:44;2.40;;;0.80;;
68921;SDS011;55959;51.244;5.724;2023-01-15T11:29:18;2.77;;;0.83;;
68921;SDS011;55959;51.244;5.724;2023-01-15T11:32:16;2.10;;;1.00;;
68921;SDS011;55959;51.244;5.724;2023-01-15T11:34:52;2.77;;;0.70;;
68921;SDS011;55959;51.244;5.724;2023-01-15T11:37:23;2.17;;;0.73;;
68921;SDS011;55959;51.244;5.724;2023-01-15T11:39:53;1.03;;;0.50;;
68921;SDS011;55959;51.244;5.724;2023-01-15T11:42:30;2.33;;;0.77;;
68921;SDS011;55959;51.244;5.724;2023-01-15T11:45:15;1.83;;;0.50;;
68921;SDS011;55959;51.244;5.724;2023-01-15T11:48:08;2.97;;;0.80;;
68921;SDS011;55959;51.244;5.724;2023-01-15T11:51:12;2.10;;;0.50;;
68921;SDS011;55959;51.244;5.724;2023-01-15T11:54:01;2.00;;;0.67;;
68921;SDS011;55959;51.244;5.724;2023-01-15T11:56:29;2.23;;;0.60;;
68921;SDS011;55959;51.244;5.724;2023-01-15T11:58:58;4.27;;;0.60;;
68921;SDS011;55959;51.244;5.724;2023-01-15T12:01:35;2.63;;;0.83;;
68921;SDS011;55959;51.244;5.724;2023-01-15T12:04:21;1.90;;;0.97;;
68921;SDS011;55959;51.244;5.724;2023-01-15T12:06:56;2.20;;;0.60;;
68921;SDS011;55959;51.244;5.724;2023-01-15T12:09:32;1.70;;;1.00;;
68921;SDS011;55959;51.244;5.724;2023-01-15T12:12:24;2.17;;;1.00;;
68921;SDS011;55959;51.244;5.724;2023-01-15T12:24:34;2.47;;;0.90;;
68921;SDS011;55959;51.244;5.724;2023-01-15T12:27:05;1.60;;;0.77;;
68921;SDS011;55959;51.244;5.724;2023-01-15T12:30:03;4.33;;;1.17;;
68921;SDS011;55959;51.244;5.724;2023-01-15T12:32:38;2.93;;;1.00;;
68921;SDS011;55959;51.244;5.724;2023-01-15T12:35:15;2.43;;;0.63;;
68921;SDS011;55959;51.244;5.724;2023-01-15T12:38:07;2.80;;;0.87;;
68921;SDS011;55959;51.244;5.724;2023-01-15T12:40:46;3.00;;;1.30;;
68921;SDS011;55959;51.244;5.724;2023-01-15T12:43:25;2.67;;;0.80;;
68921;SDS011;55959;51.244;5.724;2023-01-15T12:46:18;1.87;;;0.77;;
68921;SDS011;55959;51.244;5.724;2023-01-15T12:49:42;2.60;;;1.20;;
68921;SDS011;55959;51.244;5.724;2023-01-15T12:51:59;4.67;;;1.60;;
68921;SDS011;55959;51.244;5.724;2023-01-15T12:54:38;3.23;;;1.40;;
68921;SDS011;55959;51.244;5.724;2023-01-15T12:59:47;1.93;;;0.87;;
68921;SDS011;55959;51.244;5.724;2023-01-15T13:02:34;3.27;;;1.07;;
68921;SDS011;55959;51.244;5.724;2023-01-15T13:10:54;2.80;;;1.10;;
68921;SDS011;55959;51.244;5.724;2023-01-15T13:13:21;3.60;;;0.97;;
68921;SDS011;55959;51.244;5.724;2023-01-15T13:21:50;2.73;;;1.10;;
68921;SDS011;55959;51.244;5.724;2023-01-15T13:27:11;2.47;;;0.90;;
68921;SDS011;55959;51.244;5.724;2023-01-15T13:36:17;1.93;;;0.80;;
68921;SDS011;55959;51.244;5.724;2023-01-15T13:38:59;2.00;;;0.70;;
68921;SDS011;55959;51.244;5.724;2023-01-15T13:41:30;2.77;;;0.90;;
68921;SDS011;55959;51.244;5.724;2023-01-15T13:44:17;3.47;;;0.87;;
68921;SDS011;55959;51.244;5.724;2023-01-15T13:47:03;2.93;;;1.00;;
68921;SDS011;55959;51.244;5.724;2023-01-15T13:49:34;2.20;;;0.70;;
68921;SDS011;55959;51.244;5.724;2023-01-15T13:52:27;2.33;;;0.70;;
68921;SDS011;55959;51.244;5.724;2023-01-15T13:54:57;1.90;;;0.80;;
68921;SDS011;55959;51.244;5.724;2023-01-15T13:57:33;2.37;;;0.90;;
68921;SDS011;55959;51.244;5.724;2023-01-15T14:00:03;1.57;;;0.90;;
68921;SDS011;55959;51.244;5.724;2023-01-15T14:02:32;2.40;;;0.90;;
68921;SDS011;55959;51.244;5.724;2023-01-15T14:07:47;3.73;;;1.00;;
68921;SDS011;55959;51.244;5.724;2023-01-15T14:12:50;3.30;;;1.00;;
68921;SDS011;55959;51.244;5.724;2023-01-15T14:15:44;3.00;;;1.10;;
68921;SDS011;55959;51.244;5.724;2023-01-15T14:21:26;2.20;;;0.93;;
68921;SDS011;55959;51.244;5.724;2023-01-15T14:30:28;2.50;;;1.00;;
68921;SDS011;55959;51.244;5.724;2023-01-15T14:39:35;3.20;;;0.90;;
68921;SDS011;55959;51.244;5.724;2023-01-15T14:42:26;3.13;;;0.83;;
68921;SDS011;55959;51.244;5.724;2023-01-15T14:45:33;1.33;;;0.70;;
68921;SDS011;55959;51.244;5.724;2023-01-15T14:51:09;2.50;;;0.70;;
68921;SDS011;55959;51.244;5.724;2023-01-15T14:53:42;4.03;;;0.80;;
68921;SDS011;55959;51.244;5.724;2023-01-15T14:56:15;3.00;;;0.80;;
68921;SDS011;55959;51.244;5.724;2023-01-15T15:01:59;2.93;;;0.90;;
68921;SDS011;55959;51.244;5.724;2023-01-15T15:04:37;3.27;;;0.83;;
68921;SDS011;55959;51.244;5.724;2023-01-15T15:07:12;4.20;;;0.80;;
68921;SDS011;55959;51.244;5.724;2023-01-15T15:09:42;2.13;;;0.97;;
68921;SDS011;55959;51.244;5.724;2023-01-15T15:14:49;1.50;;;0.57;;
68921;SDS011;55959;51.244;5.724;2023-01-15T15:17:48;2.00;;;0.80;;
68921;SDS011;55959;51.244;5.724;2023-01-15T15:20:43;2.53;;;1.20;;
68921;SDS011;55959;51.244;5.724;2023-01-15T15:25:59;4.27;;;0.87;;
68921;SDS011;55959;51.244;5.724;2023-01-15T15:28:29;2.17;;;1.00;;
68921;SDS011;55959;51.244;5.724;2023-01-15T15:30:55;3.17;;;0.87;;
68921;SDS011;55959;51.244;5.724;2023-01-15T15:33:26;2.40;;;0.90;;
68921;SDS011;55959;51.244;5.724;2023-01-15T15:36:01;2.50;;;0.57;;
68921;SDS011;55959;51.244;5.724;2023-01-15T15:38:28;3.67;;;0.97;;
68921;SDS011;55959;51.244;5.724;2023-01-15T15:40:55;4.03;;;1.10;;
68921;SDS011;55959;51.244;5.724;2023-01-15T15:43:26;3.87;;;1.00;;
68921;SDS011;55959;51.244;5.724;2023-01-15T15:46:23;3.70;;;1.00;;
68921;SDS011;55959;51.244;5.724;2023-01-15T15:49:10;2.87;;;0.93;;
68921;SDS011;55959;51.244;5.724;2023-01-15T15:54:18;2.83;;;0.90;;
68921;SDS011;55959;51.244;5.724;2023-01-15T15:57:00;2.20;;;0.80;;
68921;SDS011;55959;51.244;5.724;2023-01-15T15:59:47;2.37;;;0.80;;
68921;SDS011;55959;51.244;5.724;2023-01-15T16:02:22;1.67;;;0.93;;
68921;SDS011;55959;51.244;5.724;2023-01-15T16:07:45;2.33;;;1.10;;
68921;SDS011;55959;51.244;5.724;2023-01-15T16:12:44;5.60;;;1.20;;
68921;SDS011;55959;51.244;5.724;2023-01-15T16:15:19;2.53;;;0.80;;
68921;SDS011;55959;51.244;5.724;2023-01-15T16:17:52;1.43;;;0.73;;
68921;SDS011;55959;51.244;5.724;2023-01-15T16:20:19;2.67;;;1.23;;
68921;SDS011;55959;51.244;5.724;2023-01-15T16:22:47;2.77;;;1.30;;
68921;SDS011;55959;51.244;5.724;2023-01-15T16:25:28;2.37;;;0.90;;
68921;SDS011;55959;51.244;5.724;2023-01-15T16:28:05;2.30;;;0.80;;
68921;SDS011;55959;51.244;5.724;2023-01-15T16:30:54;2.63;;;0.90;;
68921;SDS011;55959;51.244;5.724;2023-01-15T16:33:24;1.90;;;0.80;;
68921;SDS011;55959;51.244;5.724;2023-01-15T16:35:54;2.57;;;1.00;;
68921;SDS011;55959;51.244;5.724;2023-01-15T16:38:24;3.23;;;0.90;;
68921;SDS011;55959;51.244;5.724;2023-01-15T16:40:50;2.17;;;1.00;;
68921;SDS011;55959;51.244;5.724;2023-01-15T16:43:21;3.00;;;0.83;;
68921;SDS011;55959;51.244;5.724;2023-01-15T16:48:27;2.93;;;1.10;;
68921;SDS011;55959;51.244;5.724;2023-01-15T16:53:59;2.27;;;1.10;;
68921;SDS011;55959;51.244;5.724;2023-01-15T16:59:02;1.57;;;0.87;;
68921;SDS011;55959;51.244;5.724;2023-01-15T17:01:40;1.93;;;0.80;;
68921;SDS011;55959;51.244;5.724;2023-01-15T17:04:24;1.17;;;0.80;;
68921;SDS011;55959;51.244;5.724;2023-01-15T17:07:00;1.57;;;1.07;;
68921;SDS011;55959;51.244;5.724;2023-01-15T17:09:44;2.40;;;1.00;;
68921;SDS011;55959;51.244;5.724;2023-01-15T17:12:22;2.67;;;1.10;;
68921;SDS011;55959;51.244;5.724;2023-01-15T17:14:54;1.70;;;0.80;;
68921;SDS011;55959;51.244;5.724;2023-01-15T17:17:49;3.53;;;1.20;;
68921;SDS011;55959;51.244;5.724;2023-01-15T17:20:18;1.60;;;1.00;;
68921;SDS011;55959;51.244;5.724;2023-01-15T17:22:47;3.10;;;1.17;;
68921;SDS011;55959;51.244;5.724;2023-01-15T17:25:33;2.77;;;1.43;;
68921;SDS011;55959;51.244;5.724;2023-01-15T17:28:00;1.60;;;1.33;;
68921;SDS011;55959;51.244;5.724;2023-01-15T17:30:28;5.13;;;1.27;;
68921;SDS011;55959;51.244;5.724;2023-01-15T17:32:55;2.87;;;1.07;;
68921;SDS011;55959;51.244;5.724;2023-01-15T17:37:54;3.20;;;1.57;;
68921;SDS011;55959;51.244;5.724;2023-01-15T17:40:19;2.93;;;1.17;;
68921;SDS011;55959;51.244;5.724;2023-01-15T17:42:46;2.87;;;1.10;;
68921;SDS011;55959;51.244;5.724;2023-01-15T17:45:16;2.37;;;1.13;;
68921;SDS011;55959;51.244;5.724;2023-01-15T17:47:48;4.80;;;1.10;;
68921;SDS011;55959;51.244;5.724;2023-01-15T17:50:14;3.57;;;1.40;;
68921;SDS011;55959;51.244;5.724;2023-01-15T17:52:40;2.63;;;1.00;;